Desert Springs, Nevada Weather observations

Data are for 10 minute period ending at time listed.
 Day   Time    Ave.   Ave.  Ave.  Vector   Max.   Total    Solar   
  of    of     Air    Rel.  Wind   Wind    Wind  Precip.   Rad.    
Year   Day     Temp.  Hum.  Speed  Dir.    Gust                    
2014   (PST)    F      %     mph   deg.    mph     in.     W/m2    
------------------------------------------------------------------- 
 263    9:00   71.0    30    3.0   143      6.0    3.10     357  
 263   10:00   75.0    25    4.0   342      7.0    3.10     599  
 263   11:00   77.0    23    3.0    84     13.0    3.10     725  
 263   12:00   81.0    20    9.0   114     20.0    3.10     815  
 263   13:00   82.0    18   13.0   120     24.0    3.10     798  
 263   14:00   83.0    17   17.0   128     26.0    3.10     777  
 263   15:00   84.0    16   16.0   132     28.0    3.10     730  
 263   16:00   82.0    19   14.0   114     24.0    3.10     436  
 263   17:00   79.0    22   13.0   117     21.0    3.10     186  
 263   18:00   77.0    24   12.0   100     19.0    3.10      78  
 263   19:00   74.0    25    9.0    93     18.0    3.10       6  
 263   20:00   73.0    25    9.0    93     17.0    3.10       0  
 263   21:00   72.0    29   11.0   106     22.0    3.10       0  
 263   22:00   69.0    34   10.0   107     22.0    3.10       0  
 263   23:00   68.0    37   12.0   155     27.0    3.10       0  
 264    0:00   67.0    36   13.0   162     31.0    3.10       0  
 264    1:00   66.0    37    9.0   160     18.0    3.10       0  
 264    2:00   64.0    42    7.0   144     13.0    3.10       0  
 264    3:00   62.0    46    6.0   150     18.0    3.10       0  
 264    4:00   62.0    43    6.0    91      8.0    3.10       0  
 264    5:00   60.0    63    8.0    38     13.0    3.10       0  
 264    6:00   58.0    71   10.0    27     15.0    3.10       0  
 264    7:00   57.0    80    6.0    24     14.0    3.10       8  
 264    8:00   58.0    75    3.0   295      7.0    3.10      55  

Return to Desert Springs, Nevada graphs page.


Western Regional Climate Center,wrcc@dri.edu